createdAt,value
2022-11-25T00:01:28.548Z,16.17
2022-11-25T00:03:57.106Z,15.55
2022-11-25T00:06:26.789Z,16.27
2022-11-25T00:08:56.346Z,15.88
2022-11-25T00:11:23.944Z,15.57
2022-11-25T00:13:51.814Z,15.40
2022-11-25T00:16:21.093Z,15.38
2022-11-25T00:18:54.995Z,15.23
2022-11-25T00:21:24.681Z,15.60
2022-11-25T00:23:53.941Z,16.23
2022-11-25T00:26:22.005Z,16.05
2022-11-25T00:28:49.876Z,15.57
2022-11-25T00:31:20.457Z,14.85
2022-11-25T00:33:48.505Z,14.75
2022-11-25T00:36:24.286Z,15.45
2022-11-25T00:39:03.991Z,15.15
2022-11-25T00:41:50.154Z,15.55
2022-11-25T00:44:40.388Z,15.93
2022-11-25T00:47:18.916Z,13.95
2022-11-25T00:49:51.967Z,15.38
2022-11-25T00:52:24.408Z,15.70
2022-11-25T00:54:52.831Z,15.27
2022-11-25T00:57:22.212Z,15.75
2022-11-25T00:59:49.735Z,14.87
2022-11-25T01:02:18.945Z,15.57
2022-11-25T01:04:46.945Z,16.20
2022-11-25T01:07:15.414Z,15.15
2022-11-25T01:09:43.131Z,16.00
2022-11-25T01:12:10.633Z,16.52
2022-11-25T01:14:38.308Z,15.88
2022-11-25T01:17:06.411Z,16.85
2022-11-25T01:19:33.959Z,16.87
2022-11-25T01:22:01.349Z,15.63
2022-11-25T01:24:29.066Z,16.23
2022-11-25T01:26:56.380Z,16.87
2022-11-25T01:29:23.800Z,16.55
2022-11-25T01:31:57.872Z,16.25
2022-11-25T01:34:27.855Z,16.23
2022-11-25T01:39:32.095Z,16.27
2022-11-25T01:42:01.367Z,16.85
2022-11-25T01:44:30.843Z,16.90
2022-11-25T01:47:13.718Z,17.42
2022-11-25T01:49:46.887Z,16.92
2022-11-25T01:52:27.721Z,15.43
2022-11-25T01:55:07.210Z,15.70
2022-11-25T01:57:49.900Z,17.58
2022-11-25T02:00:17.960Z,15.90
2022-11-25T02:02:46.781Z,16.58
2022-11-25T02:05:18.261Z,15.82
2022-11-25T02:07:47.482Z,16.02
2022-11-25T02:10:18.566Z,17.65
2022-11-25T02:12:48.345Z,18.20
2022-11-25T02:15:16.115Z,17.42
2022-11-25T02:17:44.191Z,17.85
2022-11-25T02:20:17.065Z,17.25
2022-11-25T02:22:50.364Z,17.40
2022-11-25T02:25:24.189Z,17.05
2022-11-25T02:27:55.617Z,17.52
2022-11-25T02:30:23.555Z,18.08
2022-11-25T02:32:51.288Z,17.75
2022-11-25T02:35:33.115Z,17.33
2022-11-25T02:38:39.842Z,17.50
2022-11-25T02:41:44.429Z,17.20
2022-11-25T02:44:12.121Z,17.37
2022-11-25T02:46:39.470Z,17.73
2022-11-25T02:49:09.713Z,18.00
2022-11-25T02:51:39.894Z,16.92
2022-11-25T02:54:13.220Z,17.23
2022-11-25T02:56:41.134Z,17.02
2022-11-25T02:59:09.122Z,17.60
2022-11-25T03:01:38.353Z,17.12
2022-11-25T03:04:06.853Z,18.50
2022-11-25T03:06:34.535Z,18.60
2022-11-25T03:09:01.994Z,18.08
2022-11-25T03:11:49.321Z,17.02
2022-11-25T03:14:17.043Z,16.92
2022-11-25T03:16:44.870Z,19.55
2022-11-25T03:19:12.381Z,18.50
2022-11-25T03:21:39.671Z,19.23
2022-11-25T03:24:07.800Z,18.48
2022-11-25T03:26:35.232Z,17.62
2022-11-25T03:29:02.699Z,19.67
2022-11-25T03:31:30.389Z,19.05
2022-11-25T03:33:58.919Z,17.02
2022-11-25T03:36:26.570Z,17.67
2022-11-25T03:38:54.157Z,16.87
2022-11-25T03:41:21.430Z,19.02
2022-11-25T03:43:49.055Z,19.45
2022-11-25T03:46:17.491Z,17.55
2022-11-25T03:48:45.084Z,17.65
2022-11-25T03:51:12.506Z,19.15
2022-11-25T03:53:40.420Z,18.10
2022-11-25T03:56:08.158Z,17.98
2022-11-25T03:58:35.561Z,17.70
2022-11-25T04:01:04.207Z,17.62
2022-11-25T04:03:32.204Z,19.45
2022-11-25T04:05:59.908Z,18.23
2022-11-25T04:08:28.408Z,19.27
2022-11-25T04:10:56.547Z,19.23
2022-11-25T04:13:24.146Z,19.05
2022-11-25T04:15:52.167Z,19.58
2022-11-25T04:18:20.645Z,18.75
2022-11-25T04:20:49.922Z,18.70
2022-11-25T04:23:17.438Z,17.52
2022-11-25T04:25:45.309Z,19.67
2022-11-25T04:28:13.550Z,19.12
2022-11-25T04:30:41.232Z,18.85
2022-11-25T04:33:09.210Z,19.62
2022-11-25T04:35:36.610Z,21.23
2022-11-25T04:38:04.153Z,33.80
2022-11-25T04:40:33.786Z,33.53
2022-11-25T04:43:06.038Z,30.65
2022-11-25T04:45:51.940Z,27.65
2022-11-25T04:48:22.809Z,21.75
2022-11-25T04:50:50.465Z,19.52
2022-11-25T04:53:17.880Z,19.12
2022-11-25T04:55:45.475Z,20.75
2022-11-25T04:58:14.692Z,21.02
2022-11-25T05:00:42.225Z,20.30
2022-11-25T05:03:10.544Z,20.50
2022-11-25T05:05:39.279Z,19.45
2022-11-25T05:08:06.770Z,20.90
2022-11-25T05:10:35.919Z,20.48
2022-11-25T05:13:03.703Z,20.48
2022-11-25T05:15:31.714Z,19.27
2022-11-25T05:17:59.201Z,20.67
2022-11-25T05:20:27.861Z,19.30
2022-11-25T05:22:55.316Z,19.15
2022-11-25T05:25:24.609Z,20.58
2022-11-25T05:27:53.958Z,19.48
2022-11-25T05:30:21.245Z,19.15
2022-11-25T05:32:48.610Z,19.65
2022-11-25T05:35:16.729Z,18.95
2022-11-25T05:37:45.029Z,20.17
2022-11-25T05:40:13.142Z,18.75
2022-11-25T05:42:41.806Z,18.17
2022-11-25T05:45:09.443Z,18.50
2022-11-25T05:47:36.978Z,18.83
2022-11-25T05:50:05.387Z,19.15
2022-11-25T05:52:32.921Z,17.37
2022-11-25T05:55:01.099Z,18.52
2022-11-25T05:57:29.195Z,18.35
2022-11-25T05:59:56.796Z,18.42
2022-11-25T06:02:24.822Z,19.58
2022-11-25T06:04:52.555Z,17.92
2022-11-25T06:07:20.247Z,17.60
2022-11-25T06:09:47.664Z,17.67
2022-11-25T06:12:15.839Z,16.75
2022-11-25T06:14:43.756Z,17.35
2022-11-25T06:17:11.235Z,18.52
2022-11-25T06:19:40.089Z,17.00
2022-11-25T06:22:08.442Z,16.15
2022-11-25T06:24:36.069Z,16.40
2022-11-25T06:27:04.904Z,17.30
2022-11-25T06:29:33.205Z,16.60
2022-11-25T06:32:01.257Z,22.42
2022-11-25T06:34:30.018Z,24.42
2022-11-25T06:37:00.194Z,21.92
2022-11-25T06:39:27.525Z,21.62
2022-11-25T06:41:55.149Z,21.65
2022-11-25T06:44:22.537Z,20.85
2022-11-25T06:46:49.985Z,20.12
2022-11-25T06:49:17.646Z,19.83
2022-11-25T06:51:45.066Z,18.83
2022-11-25T06:54:12.476Z,20.37
2022-11-25T06:56:40.135Z,18.52
2022-11-25T06:59:07.595Z,19.08
2022-11-25T07:01:35.210Z,18.20
2022-11-25T07:04:05.174Z,19.55
2022-11-25T07:06:33.431Z,20.10
2022-11-25T07:09:01.625Z,19.58
2022-11-25T07:11:32.781Z,18.70
2022-11-25T07:14:05.698Z,19.02
2022-11-25T07:16:33.798Z,19.60
2022-11-25T07:19:02.216Z,19.73
2022-11-25T07:21:30.651Z,19.08
2022-11-25T07:24:00.591Z,19.75
2022-11-25T07:26:30.011Z,19.62
2022-11-25T07:29:02.998Z,20.35
2022-11-25T07:31:33.770Z,19.17
2022-11-25T07:34:04.676Z,19.83
2022-11-25T07:36:34.209Z,19.52
2022-11-25T07:39:04.963Z,20.55
2022-11-25T07:41:32.528Z,21.95
2022-11-25T07:44:05.742Z,20.65
2022-11-25T07:46:39.519Z,20.70
2022-11-25T07:49:11.633Z,20.92
2022-11-25T07:51:41.891Z,21.52
2022-11-25T07:54:12.352Z,20.20
2022-11-25T07:56:45.687Z,19.33
2022-11-25T07:59:17.974Z,19.95
2022-11-25T08:01:47.408Z,19.27
2022-11-25T08:04:20.074Z,19.45
2022-11-25T08:06:49.488Z,19.45
2022-11-25T08:09:22.113Z,18.10
2022-11-25T08:11:49.996Z,19.73
2022-11-25T08:14:18.563Z,17.37
2022-11-25T08:16:46.115Z,18.58
2022-11-25T08:19:15.542Z,18.87
2022-11-25T08:21:43.394Z,18.55
2022-11-25T08:24:16.364Z,18.40
2022-11-25T08:26:44.242Z,18.42
2022-11-25T08:29:14.189Z,17.02
2022-11-25T08:31:43.061Z,17.30
2022-11-25T08:34:21.584Z,17.40
2022-11-25T08:36:49.631Z,18.37
2022-11-25T08:39:50.429Z,19.15
2022-11-25T08:42:07.412Z,18.40
2022-11-25T08:44:35.937Z,18.00
2022-11-25T08:47:03.850Z,18.10
2022-11-25T08:49:34.932Z,18.85
2022-11-25T08:52:08.098Z,18.52
2022-11-25T08:54:35.498Z,17.33
2022-11-25T08:57:02.947Z,16.25
2022-11-25T08:59:30.550Z,17.23
2022-11-25T09:01:58.045Z,17.12
2022-11-25T09:04:25.818Z,18.60
2022-11-25T09:06:53.486Z,17.45
2022-11-25T09:09:20.795Z,18.80
2022-11-25T09:11:48.191Z,18.98
2022-11-25T09:14:15.983Z,17.30
2022-11-25T09:16:43.447Z,18.45
2022-11-25T09:19:10.864Z,18.17
2022-11-25T09:21:38.617Z,17.55
2022-11-25T09:24:06.359Z,16.17
2022-11-25T09:26:35.865Z,16.62
2022-11-25T09:29:03.899Z,15.50
2022-11-25T09:31:31.396Z,14.70
2022-11-25T09:33:58.927Z,14.45
2022-11-25T09:36:26.792Z,13.62
2022-11-25T09:38:54.414Z,12.48
2022-11-25T09:41:48.098Z,13.45
2022-11-25T09:44:58.916Z,13.25
2022-11-25T09:47:57.057Z,13.98
2022-11-25T09:50:56.284Z,14.27
2022-11-25T09:53:48.205Z,14.85
2022-11-25T09:56:28.049Z,14.87
2022-11-25T09:59:00.088Z,15.18
2022-11-25T10:04:02.965Z,14.52
2022-11-25T10:06:33.498Z,14.87
2022-11-25T10:09:11.647Z,14.68
2022-11-25T10:11:40.018Z,13.82
2022-11-25T10:14:35.395Z,14.15
2022-11-25T10:17:30.035Z,15.43
2022-11-25T10:20:00.237Z,12.93
2022-11-25T10:22:33.059Z,12.77
2022-11-25T10:25:14.522Z,13.57
2022-11-25T10:27:47.563Z,14.77
2022-11-25T10:30:22.161Z,13.35
2022-11-25T10:33:17.701Z,13.45
2022-11-25T10:35:49.809Z,12.70
2022-11-25T10:38:26.352Z,13.77
2022-11-25T10:40:54.725Z,13.30
2022-11-25T10:43:24.100Z,13.65
2022-11-25T10:46:13.682Z,13.07
2022-11-25T10:48:55.154Z,12.02
2022-11-25T10:51:34.311Z,10.47
2022-11-25T10:54:26.783Z,9.60
2022-11-25T10:57:00.860Z,12.90
2022-11-25T10:59:39.229Z,14.00
2022-11-25T11:02:16.087Z,12.77
2022-11-25T11:04:53.888Z,12.63
2022-11-25T11:07:22.478Z,15.05
2022-11-25T11:09:50.034Z,14.95
2022-11-25T11:12:24.911Z,14.80
2022-11-25T11:14:54.152Z,15.00
2022-11-25T11:17:31.907Z,15.25
2022-11-25T11:20:06.779Z,14.50
2022-11-25T11:22:46.469Z,14.95
2022-11-25T11:25:20.277Z,15.25
2022-11-25T11:27:47.918Z,17.08
2022-11-25T11:30:18.116Z,16.00
2022-11-25T11:33:07.139Z,15.55
2022-11-25T11:35:51.365Z,14.87
2022-11-25T11:38:28.082Z,15.20
2022-11-25T11:41:06.029Z,14.65
2022-11-25T11:44:14.695Z,14.20
2022-11-25T11:46:52.362Z,13.23
2022-11-25T11:49:52.625Z,12.93
2022-11-25T11:52:31.195Z,12.15
2022-11-25T11:56:05.680Z,12.00
2022-11-25T11:58:59.636Z,10.35
2022-11-25T12:01:45.170Z,10.68
2022-11-25T12:04:21.434Z,11.20
2022-11-25T12:07:02.441Z,12.18
2022-11-25T12:09:32.677Z,12.48
2022-11-25T12:12:04.362Z,11.82
2022-11-25T12:14:51.073Z,12.43
2022-11-25T12:17:23.337Z,11.90
2022-11-25T12:20:01.445Z,11.60
2022-11-25T12:22:32.586Z,12.10
2022-11-25T12:25:22.651Z,10.70
2022-11-25T12:28:07.400Z,11.12
2022-11-25T12:30:40.688Z,10.82
2022-11-25T12:33:16.553Z,11.25
2022-11-25T12:35:46.826Z,10.35
2022-11-25T12:38:26.118Z,10.20
2022-11-25T12:41:06.531Z,10.60
2022-11-25T12:43:49.474Z,10.18
2022-11-25T12:46:17.912Z,9.30
2022-11-25T12:48:45.346Z,9.68
2022-11-25T12:51:46.430Z,8.40
2022-11-25T12:54:33.622Z,7.37
2022-11-25T12:57:19.570Z,8.85
2022-11-25T13:03:17.760Z,8.43
2022-11-25T13:06:23.884Z,7.07
2022-11-25T13:08:59.969Z,7.70
2022-11-25T13:11:46.145Z,8.00
2022-11-25T13:14:24.542Z,7.93
2022-11-25T13:16:54.072Z,7.50
2022-11-25T13:19:23.041Z,8.55
2022-11-25T13:21:57.489Z,7.78
2022-11-25T13:24:31.527Z,7.78
2022-11-25T13:27:01.186Z,8.32
2022-11-25T13:29:28.692Z,9.10
2022-11-25T13:32:02.853Z,9.57
2022-11-25T13:34:31.170Z,9.43
2022-11-25T13:37:00.456Z,10.65
2022-11-25T13:39:33.598Z,10.55
2022-11-25T13:42:33.612Z,9.95
2022-11-25T13:45:01.169Z,10.95
2022-11-25T13:47:39.044Z,8.95
2022-11-25T13:50:21.969Z,10.23
2022-11-25T13:53:06.163Z,11.12
2022-11-25T13:55:39.495Z,10.90
2022-11-25T13:58:10.069Z,11.68
2022-11-25T14:00:37.280Z,12.18
2022-11-25T14:03:19.869Z,9.88
2022-11-25T14:06:28.266Z,9.88
2022-11-25T14:09:03.678Z,9.65
2022-11-25T14:11:36.411Z,8.45
2022-11-25T14:14:49.509Z,9.63
2022-11-25T14:17:38.609Z,10.05
2022-11-25T14:20:22.085Z,10.50
2022-11-25T14:23:05.513Z,12.75
2022-11-25T14:25:56.895Z,12.70
2022-11-25T14:28:54.019Z,11.38
2022-11-25T14:31:27.055Z,11.20
2022-11-25T14:33:58.087Z,10.93
2022-11-25T14:36:38.997Z,9.88
2022-11-25T14:39:10.102Z,10.52
2022-11-25T14:42:03.940Z,10.43
2022-11-25T14:44:59.254Z,11.15
2022-11-25T14:47:29.985Z,10.27
2022-11-25T14:50:26.568Z,11.23
2022-11-25T14:52:47.903Z,13.32
2022-11-25T14:55:28.839Z,11.85
2022-11-25T14:57:56.532Z,13.68
2022-11-25T15:00:24.102Z,13.93
2022-11-25T15:02:57.183Z,11.65
2022-11-25T15:05:40.945Z,16.33
2022-11-25T15:08:17.830Z,15.85
2022-11-25T15:10:52.286Z,18.00
2022-11-25T15:13:27.291Z,19.58
2022-11-25T15:15:55.942Z,23.67
2022-11-25T15:18:24.765Z,33.90
2022-11-25T15:20:56.746Z,36.60
2022-11-25T15:23:34.782Z,36.40
2022-11-25T15:26:02.729Z,33.70
2022-11-25T15:28:37.917Z,34.60
2022-11-25T15:31:18.754Z,50.15
2022-11-25T15:33:47.922Z,49.97
2022-11-25T15:36:15.315Z,49.17
2022-11-25T15:38:46.615Z,49.05
2022-11-25T15:41:34.565Z,42.97
2022-11-25T15:44:03.803Z,39.75
2022-11-25T15:46:34.361Z,37.22
2022-11-25T15:49:06.607Z,40.22
2022-11-25T15:51:41.518Z,39.22
2022-11-25T15:54:25.727Z,39.75
2022-11-25T15:56:56.532Z,34.10
2022-11-25T15:59:56.522Z,33.92
2022-11-25T16:02:48.998Z,31.83
2022-11-25T16:05:22.920Z,33.20
2022-11-25T16:07:50.390Z,34.65
2022-11-25T16:10:33.861Z,35.78
2022-11-25T16:13:21.833Z,42.25
2022-11-25T16:15:57.924Z,43.15
2022-11-25T16:18:51.271Z,38.10
2022-11-25T16:21:22.969Z,35.88
2022-11-25T16:23:57.207Z,46.45
2022-11-25T16:26:30.281Z,61.95
2022-11-25T16:29:00.148Z,61.40
2022-11-25T16:31:28.612Z,51.80
2022-11-25T16:34:00.727Z,57.67
2022-11-25T16:36:28.372Z,53.10
2022-11-25T16:38:55.754Z,55.20
2022-11-25T16:41:26.865Z,53.67
2022-11-25T16:43:58.610Z,52.40
2022-11-25T16:46:28.235Z,49.78
2022-11-25T16:48:55.841Z,49.17
2022-11-25T16:51:25.460Z,48.63
2022-11-25T16:53:52.770Z,51.88
2022-11-25T16:56:25.515Z,53.85
2022-11-25T17:01:21.801Z,51.60
2022-11-25T17:03:52.334Z,51.70
2022-11-25T17:06:22.715Z,48.83
2022-11-25T17:08:50.720Z,46.65
2022-11-25T17:11:25.871Z,48.03
2022-11-25T17:13:53.806Z,61.17
2022-11-25T17:16:24.215Z,59.33
2022-11-25T17:18:53.718Z,63.63
2022-11-25T17:21:26.826Z,50.03
2022-11-25T17:23:58.478Z,51.37
2022-11-25T17:26:40.480Z,56.55
2022-11-25T17:29:12.760Z,75.57
2022-11-25T17:31:40.725Z,85.15
2022-11-25T17:34:12.526Z,75.10
2022-11-25T17:36:40.253Z,64.32
2022-11-25T17:39:13.513Z,76.05
2022-11-25T17:41:43.735Z,77.37
2022-11-25T17:44:16.437Z,91.43
2022-11-25T17:46:44.949Z,90.30
2022-11-25T17:49:15.113Z,78.40
2022-11-25T17:51:43.473Z,85.22
2022-11-25T17:54:11.195Z,84.75
2022-11-25T17:56:40.105Z,80.53
2022-11-25T17:59:25.604Z,69.68
2022-11-25T18:01:53.544Z,63.95
2022-11-25T18:04:30.886Z,65.80
2022-11-25T18:06:58.393Z,67.18
2022-11-25T18:09:25.980Z,71.25
2022-11-25T18:11:55.617Z,72.22
2022-11-25T18:14:35.608Z,69.37
2022-11-25T18:17:06.023Z,65.12
2022-11-25T18:19:34.376Z,67.40
2022-11-25T18:22:12.632Z,62.80
2022-11-25T18:24:41.039Z,65.45
2022-11-25T18:27:14.473Z,62.42
2022-11-25T18:29:42.045Z,58.65
2022-11-25T18:32:10.162Z,62.80
2022-11-25T18:34:37.635Z,66.57
2022-11-25T18:37:05.546Z,70.78
2022-11-25T18:39:32.893Z,69.18
2022-11-25T18:42:00.828Z,69.20
2022-11-25T18:44:31.632Z,64.62
2022-11-25T18:46:58.939Z,56.45
2022-11-25T18:49:26.285Z,50.38
2022-11-25T18:51:53.890Z,47.05
2022-11-25T18:54:21.207Z,48.53
2022-11-25T18:56:51.682Z,45.85
2022-11-25T18:59:26.282Z,44.15
2022-11-25T19:01:54.288Z,45.45
2022-11-25T19:04:21.922Z,42.95
2022-11-25T19:06:49.437Z,43.05
2022-11-25T19:09:16.798Z,44.92
2022-11-25T19:11:50.515Z,45.88
2022-11-25T19:14:30.598Z,46.65
2022-11-25T19:17:02.194Z,55.05
2022-11-25T19:19:29.919Z,50.53
2022-11-25T19:22:01.150Z,49.17
2022-11-25T19:24:29.042Z,45.97
2022-11-25T19:26:57.456Z,45.10
2022-11-25T19:29:37.500Z,46.22
2022-11-25T19:34:43.914Z,47.50
2022-11-25T19:37:15.985Z,47.73
2022-11-25T19:39:43.558Z,46.75
2022-11-25T19:42:11.067Z,42.58
2022-11-25T19:44:38.718Z,47.15
2022-11-25T19:47:15.202Z,47.28
2022-11-25T19:49:43.830Z,48.85
2022-11-25T19:52:16.675Z,51.97
2022-11-25T19:54:44.060Z,48.55
2022-11-25T19:57:20.619Z,48.78
2022-11-25T19:59:48.323Z,49.30
2022-11-25T20:02:20.624Z,50.67
2022-11-25T20:04:50.041Z,49.78
2022-11-25T20:07:19.099Z,54.72
2022-11-25T20:09:47.663Z,68.35
2022-11-25T20:12:20.099Z,69.70
2022-11-25T20:14:47.927Z,60.90
2022-11-25T20:17:32.239Z,57.22
2022-11-25T20:20:07.441Z,59.45
2022-11-25T20:22:36.436Z,58.28
2022-11-25T20:25:06.099Z,57.92
2022-11-25T20:27:34.201Z,63.38
2022-11-25T20:30:01.850Z,53.47
2022-11-25T20:32:30.957Z,47.13
2022-11-25T20:34:58.782Z,48.92
2022-11-25T20:37:28.575Z,44.50
2022-11-25T20:39:57.645Z,41.65
2022-11-25T20:42:25.103Z,37.83
2022-11-25T20:44:57.332Z,38.65
2022-11-25T20:49:54.038Z,36.75
2022-11-25T20:52:28.223Z,36.92
2022-11-25T20:54:56.129Z,43.20
2022-11-25T20:57:23.777Z,41.53
2022-11-25T20:59:51.313Z,42.90
2022-11-25T21:02:21.544Z,43.10
2022-11-25T21:04:49.098Z,42.25
2022-11-25T21:07:17.889Z,40.42
2022-11-25T21:09:45.642Z,40.28
2022-11-25T21:12:18.826Z,39.30
2022-11-25T21:14:47.456Z,38.10
2022-11-25T21:17:14.977Z,40.03
2022-11-25T21:19:42.299Z,38.28
2022-11-25T21:22:13.692Z,35.58
2022-11-25T21:24:41.899Z,36.72
2022-11-25T21:27:15.568Z,36.97
2022-11-25T21:29:44.420Z,38.78
2022-11-25T21:32:22.859Z,39.83
2022-11-25T21:34:50.589Z,37.80
2022-11-25T21:37:36.508Z,37.00
2022-11-25T21:40:10.173Z,37.97
2022-11-25T21:42:37.464Z,36.30
2022-11-25T21:45:05.607Z,36.67
2022-11-25T21:47:32.941Z,38.30
2022-11-25T21:50:00.645Z,38.75
2022-11-25T21:52:28.288Z,35.97
2022-11-25T21:54:55.586Z,32.45
2022-11-25T21:57:28.098Z,33.30
2022-11-25T21:59:55.768Z,33.65
2022-11-25T22:02:24.283Z,34.58
2022-11-25T22:04:52.093Z,29.70
2022-11-25T22:07:19.781Z,28.62
2022-11-25T22:09:47.191Z,27.27
2022-11-25T22:12:38.163Z,26.70
2022-11-25T22:15:22.912Z,28.10
2022-11-25T22:17:53.424Z,27.10
2022-11-25T22:20:33.184Z,28.83
2022-11-25T22:23:01.595Z,26.62
2022-11-25T22:25:30.291Z,25.27
2022-11-25T22:27:58.044Z,27.90
2022-11-25T22:30:25.662Z,28.42
2022-11-25T22:32:59.478Z,27.87
2022-11-25T22:35:27.897Z,27.73
2022-11-25T22:37:55.717Z,28.92
2022-11-25T22:40:23.876Z,30.05
2022-11-25T22:42:52.267Z,30.12
2022-11-25T22:45:33.767Z,29.58
2022-11-25T22:48:04.626Z,31.93
2022-11-25T22:50:33.467Z,32.65
2022-11-25T22:53:01.653Z,30.80
2022-11-25T22:55:31.097Z,32.50
2022-11-25T22:58:00.616Z,29.83
2022-11-25T23:00:40.933Z,27.70
2022-11-25T23:03:15.642Z,28.20
2022-11-25T23:05:43.264Z,25.58
2022-11-25T23:08:16.546Z,25.40
2022-11-25T23:10:44.915Z,25.23
2022-11-25T23:13:12.774Z,26.52
2022-11-25T23:15:45.128Z,26.00
2022-11-25T23:18:16.358Z,22.85
2022-11-25T23:20:43.712Z,25.27
2022-11-25T23:23:18.918Z,25.55
2022-11-25T23:25:47.269Z,24.95
2022-11-25T23:28:16.248Z,26.20
2022-11-25T23:30:50.183Z,24.35
2022-11-25T23:33:38.644Z,23.27
2022-11-25T23:36:09.883Z,24.10
2022-11-25T23:38:52.403Z,22.80
2022-11-25T23:41:22.383Z,23.27
2022-11-25T23:43:50.054Z,23.70
2022-11-25T23:46:21.437Z,24.95
2022-11-25T23:48:54.030Z,22.05
2022-11-25T23:51:23.549Z,24.12
2022-11-25T23:53:51.635Z,23.73
2022-11-25T23:56:19.138Z,23.75
2022-11-25T23:58:46.820Z,23.45
